createdAt,value
2023-03-29T00:01:42.322Z,0.27
2023-03-29T00:04:10.208Z,0.40
2023-03-29T00:06:38.492Z,0.40
2023-03-29T00:09:06.092Z,0.55
2023-03-29T00:11:33.026Z,0.45
2023-03-29T00:13:59.738Z,0.40
2023-03-29T00:16:26.814Z,0.77
2023-03-29T00:18:53.494Z,0.57
2023-03-29T00:21:20.686Z,0.80
2023-03-29T00:23:47.357Z,1.00
2023-03-29T00:26:14.003Z,0.50
2023-03-29T00:28:40.826Z,0.43
2023-03-29T00:31:10.994Z,0.50
2023-03-29T00:33:37.788Z,0.52
2023-03-29T00:36:06.080Z,0.40
2023-03-29T00:38:33.167Z,0.50
2023-03-29T00:41:00.420Z,0.95
2023-03-29T00:43:27.623Z,0.95
2023-03-29T00:45:54.465Z,0.73
2023-03-29T00:48:24.424Z,0.70
2023-03-29T00:50:54.561Z,0.60
2023-03-29T00:53:26.223Z,0.50
2023-03-29T00:56:12.322Z,0.70
2023-03-29T00:58:54.808Z,0.73
2023-03-29T01:01:28.407Z,0.40
2023-03-29T01:04:04.418Z,0.40
2023-03-29T01:06:34.309Z,0.60
2023-03-29T01:09:04.610Z,0.40
2023-03-29T01:11:36.529Z,0.75
2023-03-29T01:14:06.026Z,0.73
2023-03-29T01:16:34.246Z,0.40
2023-03-29T01:19:02.325Z,0.35
2023-03-29T01:21:33.281Z,0.90
2023-03-29T01:24:09.232Z,0.45
2023-03-29T01:27:23.609Z,0.70
2023-03-29T01:29:57.756Z,0.57
2023-03-29T01:32:37.472Z,0.60
2023-03-29T01:35:10.508Z,0.50
2023-03-29T01:37:41.277Z,0.50
2023-03-29T01:40:08.568Z,0.60
2023-03-29T01:42:42.309Z,0.73
2023-03-29T01:45:10.743Z,0.80
2023-03-29T01:47:48.252Z,0.60
2023-03-29T01:50:19.361Z,0.40
2023-03-29T01:53:06.654Z,0.63
2023-03-29T01:55:36.060Z,0.53
2023-03-29T01:58:04.638Z,0.47
2023-03-29T02:00:31.964Z,0.80
2023-03-29T02:03:01.451Z,0.68
2023-03-29T02:05:30.660Z,0.88
2023-03-29T02:08:00.268Z,0.60
2023-03-29T02:10:27.453Z,0.63
2023-03-29T02:12:54.162Z,0.90
2023-03-29T02:15:21.063Z,0.85
2023-03-29T02:17:49.367Z,0.80
2023-03-29T02:20:27.380Z,0.50
2023-03-29T02:23:18.640Z,0.68
2023-03-29T02:25:45.927Z,0.30
2023-03-29T02:28:13.016Z,0.70
2023-03-29T02:31:04.709Z,0.60
2023-03-29T02:33:37.008Z,0.87
2023-03-29T02:36:10.349Z,1.13
2023-03-29T02:38:39.060Z,1.00
2023-03-29T02:41:07.021Z,0.80
2023-03-29T02:43:34.716Z,0.55
2023-03-29T02:46:02.086Z,0.52
2023-03-29T02:48:29.555Z,0.38
2023-03-29T02:50:58.600Z,0.80
2023-03-29T02:53:43.734Z,0.47
2023-03-29T02:56:10.642Z,0.70
2023-03-29T02:58:37.333Z,0.80
2023-03-29T03:01:06.796Z,0.38
2023-03-29T03:03:33.617Z,0.47
2023-03-29T03:06:01.683Z,0.73
2023-03-29T03:08:28.611Z,0.60
2023-03-29T03:10:55.448Z,0.50
2023-03-29T03:13:22.143Z,0.60
2023-03-29T03:15:49.492Z,0.80
2023-03-29T03:18:16.743Z,0.60
2023-03-29T03:20:46.914Z,0.85
2023-03-29T03:23:13.726Z,0.50
2023-03-29T03:25:40.454Z,0.73
2023-03-29T03:28:07.615Z,0.70
2023-03-29T03:30:34.675Z,1.10
2023-03-29T03:33:01.513Z,0.60
2023-03-29T03:35:28.517Z,0.50
2023-03-29T03:37:55.353Z,1.17
2023-03-29T03:40:22.614Z,0.70
2023-03-29T03:42:49.409Z,1.13
2023-03-29T03:45:16.631Z,1.00
2023-03-29T03:47:43.433Z,2.60
2023-03-29T03:50:11.617Z,3.67
2023-03-29T03:52:38.440Z,2.72
2023-03-29T03:55:05.472Z,1.40
2023-03-29T03:57:33.104Z,1.10
2023-03-29T04:00:00.020Z,1.40
2023-03-29T04:02:27.500Z,0.95
2023-03-29T04:04:54.833Z,1.23
2023-03-29T04:07:21.619Z,1.38
2023-03-29T04:09:48.857Z,1.65
2023-03-29T04:12:15.755Z,2.10
2023-03-29T04:14:42.740Z,1.33
2023-03-29T04:17:09.454Z,1.45
2023-03-29T04:19:36.204Z,1.92
2023-03-29T04:22:02.977Z,1.58
2023-03-29T04:24:29.654Z,1.40
2023-03-29T04:26:56.463Z,1.45
2023-03-29T04:29:23.143Z,2.10
2023-03-29T04:31:49.977Z,1.75
2023-03-29T04:34:16.962Z,1.98
2023-03-29T04:36:43.709Z,1.60
2023-03-29T04:39:10.642Z,2.03
2023-03-29T04:41:37.374Z,1.60
2023-03-29T04:44:04.169Z,1.35
2023-03-29T04:46:32.369Z,1.27
2023-03-29T04:48:59.303Z,1.23
2023-03-29T04:51:26.186Z,1.95
2023-03-29T04:53:53.031Z,1.27
2023-03-29T04:56:19.832Z,1.20
2023-03-29T04:58:46.639Z,1.17
2023-03-29T05:01:13.444Z,1.30
2023-03-29T05:03:40.239Z,1.25
2023-03-29T05:06:09.370Z,1.15
2023-03-29T05:08:40.886Z,1.23
2023-03-29T05:11:11.733Z,1.15
2023-03-29T05:13:38.550Z,2.20
2023-03-29T05:16:06.863Z,2.22
2023-03-29T05:18:33.814Z,2.33
2023-03-29T05:21:00.898Z,2.20
2023-03-29T05:23:28.014Z,2.38
2023-03-29T05:25:54.811Z,2.53
2023-03-29T05:28:21.795Z,2.35
2023-03-29T05:30:59.548Z,3.35
2023-03-29T05:33:26.734Z,1.70
2023-03-29T05:36:19.996Z,2.50
2023-03-29T05:38:47.340Z,2.20
2023-03-29T05:41:15.987Z,2.42
2023-03-29T05:43:42.910Z,1.92
2023-03-29T05:46:09.920Z,2.25
2023-03-29T05:48:36.689Z,2.20
2023-03-29T05:51:03.773Z,1.90
2023-03-29T05:53:30.711Z,1.90
2023-03-29T05:55:57.513Z,1.83
2023-03-29T05:58:26.392Z,1.90
2023-03-29T06:00:53.200Z,2.15
2023-03-29T06:03:23.807Z,2.33
2023-03-29T06:05:59.553Z,2.25
2023-03-29T06:08:27.619Z,2.50
2023-03-29T06:11:05.227Z,2.10
2023-03-29T06:13:34.102Z,2.53
2023-03-29T06:16:01.488Z,2.23
2023-03-29T06:18:28.534Z,2.40
2023-03-29T06:20:55.432Z,2.30
2023-03-29T06:23:23.275Z,2.20
2023-03-29T06:25:53.754Z,1.77
2023-03-29T06:28:20.551Z,2.00
2023-03-29T06:30:48.045Z,1.95
2023-03-29T06:33:15.546Z,1.63
2023-03-29T06:35:46.153Z,1.90
2023-03-29T06:38:13.807Z,2.00
2023-03-29T06:40:42.012Z,1.17
2023-03-29T06:43:09.186Z,1.58
2023-03-29T06:45:37.680Z,1.35
2023-03-29T06:48:05.910Z,1.38
2023-03-29T06:50:32.682Z,1.25
2023-03-29T06:52:59.990Z,1.70
2023-03-29T06:55:27.188Z,1.40
2023-03-29T06:57:54.677Z,1.70
2023-03-29T07:00:30.761Z,1.48
2023-03-29T07:02:58.734Z,1.00
2023-03-29T07:05:28.588Z,1.13
2023-03-29T07:08:13.873Z,1.10
2023-03-29T07:10:47.495Z,1.52
2023-03-29T07:13:15.535Z,1.60
2023-03-29T07:15:43.709Z,1.30
2023-03-29T07:18:12.513Z,1.90
2023-03-29T07:20:39.348Z,2.70
2023-03-29T07:23:06.931Z,1.52
2023-03-29T07:25:33.993Z,1.60
2023-03-29T07:28:01.522Z,1.23
2023-03-29T07:30:31.625Z,1.80
2023-03-29T07:32:59.771Z,1.40
2023-03-29T07:35:28.304Z,1.63
2023-03-29T07:37:55.855Z,1.50
2023-03-29T07:40:23.950Z,1.30
2023-03-29T07:42:54.104Z,1.10
2023-03-29T07:45:26.484Z,1.08
2023-03-29T07:48:00.661Z,1.10
2023-03-29T07:50:27.769Z,0.98
2023-03-29T07:52:54.786Z,0.98
2023-03-29T07:55:22.104Z,0.80
2023-03-29T07:57:49.928Z,0.82
2023-03-29T08:00:17.387Z,1.40
2023-03-29T08:02:45.702Z,1.80
2023-03-29T08:05:14.316Z,1.15
2023-03-29T08:07:45.159Z,1.57
2023-03-29T08:10:17.483Z,2.10
2023-03-29T08:12:45.928Z,1.30
2023-03-29T08:15:13.310Z,1.45
2023-03-29T08:17:40.836Z,1.95
2023-03-29T08:20:11.558Z,1.67
2023-03-29T08:22:38.898Z,1.17
2023-03-29T08:25:06.918Z,1.73
2023-03-29T08:27:34.249Z,1.42
2023-03-29T08:30:01.448Z,1.45
2023-03-29T08:32:28.301Z,1.33
2023-03-29T08:34:55.210Z,1.33
2023-03-29T08:37:23.980Z,1.00
2023-03-29T08:39:50.718Z,1.05
2023-03-29T08:42:34.026Z,0.90
2023-03-29T08:45:29.367Z,1.00
2023-03-29T08:48:14.285Z,1.42
2023-03-29T08:50:47.962Z,1.63
2023-03-29T08:53:21.603Z,1.33
2023-03-29T08:55:48.825Z,2.00
2023-03-29T08:58:19.229Z,1.70
2023-03-29T09:00:49.995Z,1.45
2023-03-29T09:03:22.909Z,1.10
2023-03-29T09:05:55.182Z,1.20
2023-03-29T09:08:22.686Z,1.50
2023-03-29T09:11:04.736Z,1.20
2023-03-29T09:13:49.995Z,1.10
2023-03-29T09:16:25.381Z,1.20
2023-03-29T09:19:13.767Z,1.05
2023-03-29T09:21:59.199Z,1.20
2023-03-29T09:24:40.044Z,1.33
2023-03-29T09:27:11.046Z,1.05
2023-03-29T09:29:56.608Z,1.15
2023-03-29T09:32:33.029Z,1.02
2023-03-29T09:35:24.586Z,0.98
2023-03-29T09:37:53.394Z,1.10
2023-03-29T09:40:22.433Z,1.52
2023-03-29T09:42:51.650Z,1.35
2023-03-29T09:45:18.831Z,1.00
2023-03-29T09:47:58.235Z,1.40
2023-03-29T09:50:36.874Z,1.63
2023-03-29T09:53:05.038Z,1.15
2023-03-29T09:55:34.081Z,1.30
2023-03-29T09:58:02.397Z,1.55
2023-03-29T10:00:30.091Z,1.33
2023-03-29T10:02:58.936Z,1.77
2023-03-29T10:05:36.728Z,1.60
2023-03-29T10:08:17.657Z,1.55
2023-03-29T10:10:47.116Z,1.40
2023-03-29T10:13:18.993Z,1.75
2023-03-29T10:16:07.523Z,1.70
2023-03-29T10:18:40.735Z,1.67
2023-03-29T10:21:12.101Z,1.50
2023-03-29T10:23:39.149Z,1.90
2023-03-29T10:26:07.959Z,1.65
2023-03-29T10:28:36.326Z,1.57
2023-03-29T10:31:05.937Z,1.75
2023-03-29T10:33:34.894Z,2.00
2023-03-29T10:36:05.094Z,2.10
2023-03-29T10:38:32.058Z,1.98
2023-03-29T10:41:09.974Z,2.17
2023-03-29T10:43:45.415Z,2.50
2023-03-29T10:46:21.271Z,2.58
2023-03-29T10:49:00.051Z,2.72
2023-03-29T10:51:32.696Z,2.22
2023-03-29T10:53:59.965Z,3.00
2023-03-29T10:56:33.047Z,2.92
2023-03-29T10:59:23.095Z,2.10
2023-03-29T11:01:56.057Z,2.65
2023-03-29T11:05:00.185Z,2.75
2023-03-29T11:07:52.581Z,2.80
2023-03-29T11:10:38.514Z,2.80
2023-03-29T11:13:25.122Z,3.10
2023-03-29T11:16:13.838Z,2.97
2023-03-29T11:19:04.623Z,2.90
2023-03-29T11:21:43.432Z,2.37
2023-03-29T11:24:25.647Z,2.30
2023-03-29T11:27:31.443Z,2.47
2023-03-29T11:30:01.107Z,2.92
2023-03-29T11:32:36.530Z,2.65
2023-03-29T11:35:06.601Z,3.03
2023-03-29T11:37:45.474Z,3.35
2023-03-29T11:40:45.317Z,2.80
2023-03-29T11:43:17.170Z,3.10
2023-03-29T11:45:50.630Z,2.90
2023-03-29T11:48:21.565Z,3.60
2023-03-29T11:50:52.145Z,3.05
2023-03-29T11:53:25.847Z,3.03
2023-03-29T11:55:54.146Z,3.17
2023-03-29T11:58:22.453Z,3.05
2023-03-29T12:00:55.448Z,3.30
2023-03-29T12:03:39.278Z,3.15
2023-03-29T12:06:13.234Z,3.05
2023-03-29T12:08:53.154Z,3.10
2023-03-29T12:11:21.208Z,2.80
2023-03-29T12:13:52.580Z,2.87
2023-03-29T12:16:37.160Z,2.72
2023-03-29T12:19:27.114Z,2.90
2023-03-29T12:21:56.098Z,2.55
2023-03-29T12:24:23.751Z,2.70
2023-03-29T12:27:03.065Z,2.93
2023-03-29T12:30:02.493Z,2.88
2023-03-29T12:32:53.624Z,2.90
2023-03-29T12:35:48.610Z,2.90
2023-03-29T12:38:24.208Z,2.45
2023-03-29T12:40:59.630Z,2.90
2023-03-29T12:43:37.572Z,2.70
2023-03-29T12:46:12.823Z,2.40
2023-03-29T12:48:41.628Z,2.55
2023-03-29T12:51:16.056Z,2.60
2023-03-29T12:53:45.480Z,2.50
2023-03-29T12:56:17.752Z,2.72
2023-03-29T12:59:11.656Z,2.42
2023-03-29T13:01:41.285Z,2.50
2023-03-29T13:04:19.785Z,2.50
2023-03-29T13:06:46.590Z,2.50
2023-03-29T13:09:29.984Z,2.40
2023-03-29T13:12:11.894Z,2.47
2023-03-29T13:14:43.076Z,2.90
2023-03-29T13:17:19.502Z,3.25
2023-03-29T13:20:11.158Z,2.50
2023-03-29T13:23:14.603Z,2.95
2023-03-29T13:26:21.444Z,2.35
2023-03-29T13:29:03.341Z,2.13
2023-03-29T13:31:48.553Z,2.13
2023-03-29T13:34:28.160Z,2.40
2023-03-29T13:37:20.914Z,2.75
2023-03-29T13:39:51.271Z,2.90
2023-03-29T13:42:24.103Z,3.25
2023-03-29T13:44:53.866Z,2.80
2023-03-29T13:47:33.086Z,2.90
2023-03-29T13:50:03.958Z,3.55
2023-03-29T13:52:34.480Z,2.47
2023-03-29T13:55:28.310Z,3.40
2023-03-29T13:58:13.452Z,2.70
2023-03-29T14:00:46.247Z,2.37
2023-03-29T14:03:30.009Z,2.80
2023-03-29T14:06:01.990Z,2.70
2023-03-29T14:08:37.816Z,3.00
2023-03-29T14:11:06.964Z,2.58
2023-03-29T14:13:35.242Z,2.43
2023-03-29T14:16:10.861Z,2.70
2023-03-29T14:18:40.126Z,3.10
2023-03-29T14:21:07.609Z,2.88
2023-03-29T14:23:36.773Z,2.17
2023-03-29T14:26:15.390Z,2.23
2023-03-29T14:28:48.967Z,2.10
2023-03-29T14:31:24.926Z,2.00
2023-03-29T14:33:56.646Z,2.33
2023-03-29T14:36:27.416Z,1.70
2023-03-29T14:38:59.440Z,2.10
2023-03-29T14:41:31.203Z,1.92
2023-03-29T14:43:58.487Z,1.38
2023-03-29T14:46:25.795Z,1.48
2023-03-29T14:48:54.348Z,1.88
2023-03-29T14:51:23.350Z,1.60
2023-03-29T14:53:50.666Z,1.83
2023-03-29T14:56:21.240Z,1.70
2023-03-29T14:58:47.946Z,1.58
2023-03-29T15:01:20.262Z,1.90
2023-03-29T15:03:55.104Z,1.83
2023-03-29T15:06:24.167Z,1.85
2023-03-29T15:09:01.994Z,1.80
2023-03-29T15:11:31.697Z,1.50
2023-03-29T15:14:04.456Z,1.80
2023-03-29T15:16:32.058Z,2.00
2023-03-29T15:19:01.577Z,1.90
2023-03-29T15:21:33.446Z,1.80
2023-03-29T15:24:04.834Z,2.03
2023-03-29T15:26:37.454Z,1.80
2023-03-29T15:29:17.492Z,1.83
2023-03-29T15:31:54.205Z,1.75
2023-03-29T15:34:29.676Z,2.10
2023-03-29T15:36:59.812Z,2.33
2023-03-29T15:39:27.696Z,1.80
2023-03-29T15:41:56.756Z,1.47
2023-03-29T15:44:29.066Z,1.70
2023-03-29T15:46:57.771Z,1.70
2023-03-29T15:49:25.085Z,1.58
2023-03-29T15:51:55.537Z,1.50
2023-03-29T15:54:24.397Z,2.10
2023-03-29T15:56:55.344Z,1.80
2023-03-29T15:59:22.834Z,1.67
2023-03-29T16:01:49.786Z,1.30
2023-03-29T16:04:21.067Z,1.67
2023-03-29T16:06:50.622Z,1.87
2023-03-29T16:09:17.418Z,1.80
2023-03-29T16:11:44.911Z,1.80
2023-03-29T16:14:17.993Z,2.03
2023-03-29T16:16:44.754Z,1.70
2023-03-29T16:19:11.523Z,1.80
2023-03-29T16:21:38.416Z,1.50
2023-03-29T16:24:07.240Z,1.50
2023-03-29T16:26:33.918Z,1.67
2023-03-29T16:29:00.716Z,1.40
2023-03-29T16:31:27.546Z,1.50
2023-03-29T16:33:54.312Z,1.80
2023-03-29T16:36:21.168Z,1.50
2023-03-29T16:38:47.936Z,1.45
2023-03-29T16:41:15.824Z,1.63
2023-03-29T16:43:42.666Z,2.10
2023-03-29T16:46:10.684Z,1.45
2023-03-29T16:48:37.970Z,1.50
2023-03-29T16:51:05.782Z,1.27
2023-03-29T16:53:32.808Z,2.10
2023-03-29T16:55:59.520Z,1.87
2023-03-29T16:58:27.128Z,1.63
2023-03-29T17:00:53.866Z,1.65
2023-03-29T17:03:21.145Z,1.70
2023-03-29T17:05:51.991Z,1.60
2023-03-29T17:08:20.311Z,1.50
2023-03-29T17:10:51.709Z,1.55
2023-03-29T17:13:18.522Z,1.42
2023-03-29T17:15:45.201Z,1.65
2023-03-29T17:18:12.368Z,1.55
2023-03-29T17:20:40.284Z,2.00
2023-03-29T17:23:08.784Z,2.17
2023-03-29T17:25:36.249Z,2.00
2023-03-29T17:28:03.674Z,1.90
2023-03-29T17:30:30.538Z,1.98
2023-03-29T17:32:57.224Z,2.10
2023-03-29T17:35:24.031Z,2.50
2023-03-29T17:37:50.768Z,3.70
2023-03-29T17:40:18.606Z,2.20
2023-03-29T17:42:52.534Z,2.20
2023-03-29T17:45:19.385Z,1.87
2023-03-29T17:47:46.183Z,2.05
2023-03-29T17:50:13.348Z,1.73
2023-03-29T17:52:40.086Z,1.98
2023-03-29T17:55:11.243Z,1.35
2023-03-29T17:57:38.876Z,1.50
2023-03-29T18:00:08.120Z,1.20
2023-03-29T18:02:35.122Z,0.85
2023-03-29T18:05:01.998Z,1.05
2023-03-29T18:07:29.063Z,1.05
2023-03-29T18:09:55.940Z,1.23
2023-03-29T18:12:25.964Z,0.90
2023-03-29T18:14:52.702Z,0.80
2023-03-29T18:17:19.542Z,1.10
2023-03-29T18:19:46.533Z,1.10
2023-03-29T18:22:13.328Z,1.23
2023-03-29T18:24:40.160Z,1.40
2023-03-29T18:27:06.866Z,1.38
2023-03-29T18:29:33.623Z,2.47
2023-03-29T18:32:03.017Z,3.53
2023-03-29T18:34:30.649Z,5.63
2023-03-29T18:36:57.710Z,6.25
2023-03-29T18:39:24.748Z,6.18
2023-03-29T18:41:52.005Z,5.40
2023-03-29T18:44:18.772Z,5.78
2023-03-29T18:46:45.494Z,5.27
2023-03-29T18:49:13.187Z,4.72
2023-03-29T18:51:42.075Z,6.57
2023-03-29T18:54:09.070Z,6.70
2023-03-29T18:56:36.013Z,6.05
2023-03-29T18:59:06.195Z,5.70
2023-03-29T19:01:33.215Z,6.13
2023-03-29T19:04:00.418Z,6.43
2023-03-29T19:06:27.368Z,5.75
2023-03-29T19:08:55.321Z,6.88
2023-03-29T19:11:23.003Z,6.40
2023-03-29T19:13:50.724Z,6.28
2023-03-29T19:16:17.547Z,5.90
2023-03-29T19:18:44.353Z,4.85
2023-03-29T19:21:11.380Z,4.43
2023-03-29T19:23:38.162Z,5.00
2023-03-29T19:26:05.855Z,4.90
2023-03-29T19:28:33.758Z,5.07
2023-03-29T19:31:01.901Z,5.20
2023-03-29T19:33:29.358Z,5.47
2023-03-29T19:35:56.697Z,6.13
2023-03-29T19:38:23.649Z,5.45
2023-03-29T19:40:51.603Z,5.63
2023-03-29T19:43:19.377Z,5.43
2023-03-29T19:45:47.702Z,5.13
2023-03-29T19:48:21.915Z,6.53
2023-03-29T19:50:49.591Z,5.85
2023-03-29T19:53:16.487Z,5.00
2023-03-29T19:55:45.134Z,5.20
2023-03-29T19:58:12.617Z,5.18
2023-03-29T20:00:39.442Z,4.40
2023-03-29T20:03:09.879Z,3.75
2023-03-29T20:05:38.426Z,3.50
2023-03-29T20:08:05.402Z,2.97
2023-03-29T20:10:32.718Z,3.95
2023-03-29T20:12:59.455Z,3.90
2023-03-29T20:15:26.306Z,3.42
2023-03-29T20:17:55.297Z,3.17
2023-03-29T20:20:24.678Z,4.18
2023-03-29T20:22:53.972Z,5.32
2023-03-29T20:25:21.294Z,4.53
2023-03-29T20:27:49.415Z,4.35
2023-03-29T20:30:16.438Z,4.18
2023-03-29T20:32:43.281Z,4.30
2023-03-29T20:35:11.647Z,3.90
2023-03-29T20:37:38.314Z,3.87
2023-03-29T20:40:06.645Z,3.25
2023-03-29T20:42:34.458Z,3.83
2023-03-29T20:45:01.866Z,3.67
2023-03-29T20:47:29.423Z,3.65
2023-03-29T20:49:56.793Z,4.33
2023-03-29T20:52:24.059Z,4.53
2023-03-29T20:54:50.764Z,4.05
2023-03-29T20:57:19.939Z,3.88
2023-03-29T20:59:49.149Z,3.70
2023-03-29T21:02:19.119Z,4.23
2023-03-29T21:04:49.765Z,3.85
2023-03-29T21:07:17.178Z,3.63
2023-03-29T21:09:44.015Z,4.28
2023-03-29T21:12:11.290Z,5.65
2023-03-29T21:14:38.718Z,8.77
2023-03-29T21:17:05.562Z,7.50
2023-03-29T21:19:32.406Z,7.13
2023-03-29T21:21:59.163Z,9.00
2023-03-29T21:24:25.995Z,6.10
2023-03-29T21:26:52.709Z,3.43
2023-03-29T21:29:19.430Z,3.83
2023-03-29T21:31:46.302Z,3.95
2023-03-29T21:34:13.151Z,4.10
2023-03-29T21:36:40.308Z,4.63
2023-03-29T21:39:07.013Z,3.80
2023-03-29T21:41:33.817Z,2.33
2023-03-29T21:44:00.683Z,1.67
2023-03-29T21:46:27.557Z,1.55
2023-03-29T21:48:54.268Z,2.20
2023-03-29T21:51:21.052Z,2.00
2023-03-29T21:53:47.755Z,3.10
2023-03-29T21:56:15.393Z,2.92
2023-03-29T21:58:42.428Z,2.65
2023-03-29T22:01:10.485Z,3.35
2023-03-29T22:03:37.844Z,3.40
2023-03-29T22:06:08.599Z,3.78
2023-03-29T22:08:38.721Z,3.58
2023-03-29T22:11:08.461Z,3.95
2023-03-29T22:13:35.318Z,2.00
2023-03-29T22:16:03.831Z,1.73
2023-03-29T22:18:42.685Z,2.72
2023-03-29T22:21:24.875Z,2.20
2023-03-29T22:23:53.516Z,1.80
2023-03-29T22:26:23.338Z,1.92
2023-03-29T22:28:51.088Z,1.27
2023-03-29T22:31:19.497Z,1.00
2023-03-29T22:33:46.622Z,1.98
2023-03-29T22:36:23.247Z,1.50
2023-03-29T22:38:50.760Z,1.00
2023-03-29T22:41:18.524Z,1.00
2023-03-29T22:43:45.299Z,1.25
2023-03-29T22:46:13.713Z,1.20
2023-03-29T22:48:40.711Z,1.20
2023-03-29T22:51:07.485Z,1.13
2023-03-29T22:53:34.473Z,1.40
2023-03-29T22:56:01.348Z,1.15
2023-03-29T22:58:29.429Z,1.23
2023-03-29T23:00:57.270Z,1.27
2023-03-29T23:03:24.066Z,1.08
2023-03-29T23:05:55.206Z,1.10
2023-03-29T23:08:23.439Z,1.02
2023-03-29T23:10:50.609Z,1.35
2023-03-29T23:13:25.837Z,1.23
2023-03-29T23:15:54.592Z,1.60
2023-03-29T23:18:23.532Z,1.47
2023-03-29T23:20:52.501Z,1.63
2023-03-29T23:23:20.123Z,1.58
2023-03-29T23:25:48.586Z,1.40
2023-03-29T23:28:16.963Z,1.55
2023-03-29T23:30:43.830Z,1.87
2023-03-29T23:33:10.645Z,1.50
2023-03-29T23:35:37.758Z,2.03
2023-03-29T23:38:05.804Z,1.92
2023-03-29T23:40:33.288Z,1.80
2023-03-29T23:43:00.252Z,1.70
2023-03-29T23:45:30.042Z,2.08
2023-03-29T23:47:57.372Z,2.05
2023-03-29T23:50:24.448Z,1.73
2023-03-29T23:52:51.723Z,1.73
2023-03-29T23:55:18.909Z,2.00
2023-03-29T23:57:45.713Z,1.80
